Time;durP1;ratioP1;P1;durP2;ratioP2;P2;SDS_P1;SDS_P2;PMS_P1;PMS_P2;Temp;Humidity;BMP_temperature;BMP_pressure;BME280_temperature;BME280_humidity;BME280_pressure;Samples;Min_cycle;Max_cycle;Signal;HPM_P1;HPM_P2
2023/05/07 00:01:18;;;;;;;3.58;2.50;;;;;;;12.70;100.00;92660.38;5032719;28;20048;-77
2023/05/07 00:03:44;;;;;;;4.03;2.58;;;;;;;12.74;100.00;92649.25;5032902;28;20022;-77
2023/05/07 00:06:12;;;;;;;4.88;2.70;;;;;;;12.81;100.00;92642.56;5033423;28;20046;-77
2023/05/07 00:08:38;;;;;;;4.05;2.45;;;;;;;12.85;100.00;92646.13;5033059;28;20095;-77
2023/05/07 00:11:04;;;;;;;3.67;2.40;;;;;;;12.80;100.00;92640.22;5032669;28;20044;-77
2023/05/07 00:13:35;;;;;;;5.15;2.45;;;;;;;12.81;100.00;92644.38;5030457;28;20400;-77
2023/05/07 00:16:04;;;;;;;3.20;2.20;;;;;;;12.96;100.00;92636.16;5033078;28;20493;-77
2023/05/07 00:18:30;;;;;;;3.50;2.10;;;;;;;12.82;100.00;92625.69;5031328;28;20033;-77
2023/05/07 00:20:56;;;;;;;2.97;1.98;;;;;;;12.98;100.00;92626.13;5031831;28;20044;-77
2023/05/07 00:23:22;;;;;;;3.67;2.22;;;;;;;12.86;100.00;92618.03;5031648;28;20053;-77
2023/05/07 00:25:47;;;;;;;4.07;2.10;;;;;;;13.06;100.00;92625.44;5031467;28;20037;-77
2023/05/07 00:28:13;;;;;;;3.90;2.30;;;;;;;12.97;100.00;92624.59;5032475;28;20045;-77
2023/05/07 00:30:38;;;;;;;4.40;2.50;;;;;;;12.97;100.00;92619.34;5032006;28;20040;-77
2023/05/07 00:33:04;;;;;;;3.42;2.15;;;;;;;12.96;100.00;92614.38;5026956;28;20022;-77
2023/05/07 00:35:30;;;;;;;3.83;2.28;;;;;;;12.88;100.00;92618.50;5029620;28;20044;-77
2023/05/07 00:37:55;;;;;;;4.13;2.00;;;;;;;12.98;100.00;92610.38;5032040;28;20072;-77
2023/05/07 00:40:21;;;;;;;2.95;2.10;;;;;;;12.77;100.00;92611.91;5014454;28;20593;-77
2023/05/07 00:42:48;;;;;;;4.03;2.60;;;;;;;12.77;100.00;92607.44;5031721;28;20119;-77
2023/05/07 00:45:15;;;;;;;3.53;2.25;;;;;;;12.73;100.00;92621.44;5047111;28;20041;-77
2023/05/07 00:47:41;;;;;;;5.18;2.35;;;;;;;12.67;100.00;92629.41;5031616;28;20045;-77
2023/05/07 00:50:09;;;;;;;3.92;2.47;;;;;;;12.64;100.00;92624.75;5031865;28;20069;-77
2023/05/07 00:52:35;;;;;;;3.42;2.20;;;;;;;12.69;100.00;92618.63;5030610;28;20490;-77
2023/05/07 00:55:05;;;;;;;4.75;2.83;;;;;;;12.67;100.00;92626.03;5030736;28;20041;-77
2023/05/07 00:57:36;;;;;;;4.18;2.40;;;;;;;12.64;100.00;92635.28;5030611;28;20156;-77
2023/05/07 01:00:08;;;;;;;3.65;2.20;;;;;;;12.65;100.00;92636.84;5031433;28;20037;-77
2023/05/07 01:02:35;;;;;;;3.80;2.38;;;;;;;12.64;100.00;92645.00;5031704;28;20030;-77
2023/05/07 01:05:01;;;;;;;3.90;2.30;;;;;;;12.65;100.00;92651.81;5029943;28;20029;-77
2023/05/07 01:07:27;;;;;;;3.90;2.50;;;;;;;12.69;100.00;92655.41;5030645;28;20040;-77
2023/05/07 01:09:53;;;;;;;4.47;2.22;;;;;;;12.62;100.00;92658.41;5030580;28;20067;-77
2023/05/07 01:12:19;;;;;;;4.13;2.60;;;;;;;12.55;100.00;92652.78;5030026;28;20025;-77
2023/05/07 01:14:45;;;;;;;4.10;2.72;;;;;;;12.61;100.00;92659.50;5031466;28;20503;-77
2023/05/07 01:17:10;;;;;;;4.60;2.85;;;;;;;12.54;100.00;92659.13;5013536;28;20041;-77
2023/05/07 01:19:36;;;;;;;4.68;2.83;;;;;;;12.46;100.00;92657.19;5030269;28;20044;-77
2023/05/07 01:22:10;;;;;;;6.72;3.25;;;;;;;12.40;100.00;92655.72;5013444;28;20037;-76
2023/05/07 01:24:45;;;;;;;3.97;2.45;;;;;;;12.38;100.00;92653.38;5029811;28;20029;-77
2023/05/07 01:27:12;;;;;;;4.68;2.75;;;;;;;12.37;100.00;92662.34;5030093;28;20045;-77
2023/05/07 01:29:38;;;;;;;5.97;2.75;;;;;;;12.38;100.00;92668.34;5029771;28;20040;-77
2023/05/07 01:32:05;;;;;;;4.65;2.50;;;;;;;12.36;100.00;92673.13;5029817;28;20379;-77
2023/05/07 01:34:34;;;;;;;3.90;2.55;;;;;;;12.37;100.00;92678.09;5046337;28;20045;-77
2023/05/07 01:37:01;;;;;;;4.20;2.78;;;;;;;12.32;100.00;92680.03;5029452;28;20029;-77
2023/05/07 01:39:29;;;;;;;5.05;3.22;;;;;;;12.26;100.00;92676.72;5029711;28;20575;-77
2023/05/07 01:41:59;;;;;;;5.35;3.60;;;;;;;12.28;100.00;92685.84;5012586;28;20072;-77
2023/05/07 01:44:25;;;;;;;5.47;3.95;;;;;;;12.36;100.00;92688.88;5029541;28;20056;-77
2023/05/07 01:46:52;;;;;;;5.25;3.90;;;;;;;12.26;100.00;92688.00;5029396;28;20067;-77
2023/05/07 01:49:18;;;;;;;6.50;4.10;;;;;;;12.24;100.00;92689.34;5013335;28;20033;-77
2023/05/07 01:51:44;;;;;;;5.63;3.42;;;;;;;12.12;100.00;92687.22;5031177;28;20040;-77
2023/05/07 01:54:09;;;;;;;4.88;3.00;;;;;;;11.99;100.00;92683.50;5030215;28;20045;-77
2023/05/07 01:56:35;;;;;;;4.85;3.20;;;;;;;11.92;100.00;92687.56;5029464;28;20479;-77
2023/05/07 01:59:02;;;;;;;4.40;2.67;;;;;;;11.93;100.00;92684.66;5029864;28;20499;-77
2023/05/07 02:01:28;;;;;;;4.72;3.08;;;;;;;11.78;100.00;92690.16;5030768;28;20030;-77
2023/05/07 02:03:54;;;;;;;6.30;2.92;;;;;;;11.73;100.00;92684.97;5030725;28;20053;-77
2023/05/07 02:06:23;;;;;;;4.50;3.30;;;;;;;11.72;100.00;92688.66;5042251;28;20622;-77
2023/05/07 02:08:51;;;;;;;4.68;3.15;;;;;;;11.65;100.00;92699.53;5030179;28;20065;-77
2023/05/07 02:11:17;;;;;;;5.57;3.33;;;;;;;11.65;100.00;92689.81;5012947;28;20057;-77
2023/05/07 02:13:43;;;;;;;4.80;2.80;;;;;;;11.69;100.00;92687.41;5012481;28;20091;-77
2023/05/07 02:16:08;;;;;;;5.22;3.30;;;;;;;11.73;100.00;92691.00;5030334;28;20030;-77
2023/05/07 02:18:35;;;;;;;5.28;2.70;;;;;;;11.79;100.00;92681.97;5029380;28;20041;-77
2023/05/07 02:21:01;;;;;;;4.53;2.33;;;;;;;11.81;100.00;92677.22;5028643;28;20025;-77
2023/05/07 02:23:26;;;;;;;4.97;2.70;;;;;;;11.82;100.00;92675.38;5028869;28;20541;-77
2023/05/07 02:25:52;;;;;;;6.50;2.40;;;;;;;11.81;100.00;92677.22;5028742;28;20037;-77
2023/05/07 02:28:18;;;;;;;4.35;2.60;;;;;;;11.84;100.00;92686.34;5013004;28;20034;-77
2023/05/07 02:31:00;;;;;;;3.90;2.13;;;;;;;11.87;100.00;92681.34;5028844;28;20345;-77
2023/05/07 02:33:27;;;;;;;3.53;2.17;;;;;;;11.90;100.00;92679.97;5013001;28;20514;-77
2023/05/07 02:35:54;;;;;;;5.50;2.28;;;;;;;11.93;100.00;92673.38;5028234;28;20021;-77
2023/05/07 02:38:20;;;;;;;4.00;2.38;;;;;;;11.96;100.00;92672.81;5025958;28;20052;-78
2023/05/07 02:40:45;;;;;;;4.85;2.25;;;;;;;11.95;100.00;92672.00;5018360;28;20483;-78
2023/05/07 02:43:11;;;;;;;5.65;2.15;;;;;;;11.95;100.00;92676.50;5034438;28;20033;-78
2023/05/07 02:45:40;;;;;;;4.55;1.98;;;;;;;11.95;100.00;92677.25;5017928;28;20043;-78
2023/05/07 02:48:06;;;;;;;3.95;1.80;;;;;;;11.97;100.00;92674.38;5033693;28;20045;-78
2023/05/07 02:50:32;;;;;;;2.65;1.70;;;;;;;11.99;100.00;92662.50;5034089;28;20045;-77
2023/05/07 02:52:58;;;;;;;3.22;1.85;;;;;;;12.00;100.00;92660.66;5032803;28;20037;-78
2023/05/07 02:55:24;;;;;;;3.55;1.88;;;;;;;12.01;100.00;92655.13;5033501;28;20025;-77
2023/05/07 02:57:49;;;;;;;3.90;1.75;;;;;;;11.99;100.00;92659.88;5034264;28;20485;-78
2023/05/07 03:00:19;;;;;;;3.22;2.00;;;;;;;12.01;100.00;92646.47;5032319;28;20435;-77
2023/05/07 03:03:05;;;;;;;2.92;1.80;;;;;;;12.03;100.00;92646.97;5032269;28;20099;-77
2023/05/07 03:05:30;;;;;;;2.80;1.83;;;;;;;12.02;100.00;92634.91;5033472;28;20515;-78
2023/05/07 03:07:56;;;;;;;2.63;1.70;;;;;;;12.04;100.00;92628.31;5013103;28;20155;-78
2023/05/07 03:10:21;;;;;;;3.20;1.90;;;;;;;12.06;100.00;92631.41;5032456;28;20042;-77
2023/05/07 03:12:47;;;;;;;4.38;1.92;;;;;;;12.06;100.00;92631.41;5033792;28;20017;-78
2023/05/07 03:15:16;;;;;;;3.10;1.80;;;;;;;12.07;100.00;92627.72;5032320;28;20041;-77
2023/05/07 03:17:42;;;;;;;3.42;2.10;;;;;;;12.06;100.00;92617.53;5032990;28;20124;-78
2023/05/07 03:20:09;;;;;;;2.97;2.00;;;;;;;12.05;100.00;92608.09;5033688;28;20176;-77
2023/05/07 03:22:35;;;;;;;3.65;1.90;;;;;;;12.07;100.00;92608.59;5031892;28;20144;-78
2023/05/07 03:25:01;;;;;;;3.28;1.73;;;;;;;12.25;100.00;92589.34;5032862;28;20151;-78
2023/05/07 03:27:26;;;;;;;3.17;1.70;;;;;;;12.39;100.00;92583.28;5032208;28;20121;-77
2023/05/07 03:29:53;;;;;;;3.05;1.77;;;;;;;12.38;100.00;92589.59;5032409;28;20319;-78
2023/05/07 03:32:19;;;;;;;6.38;1.90;;;;;;;12.17;100.00;92616.25;5032790;28;20041;-78
2023/05/07 03:34:45;;;;;;;3.25;1.83;;;;;;;12.06;100.00;92620.16;5032303;28;20033;-78
2023/05/07 03:37:12;;;;;;;5.50;2.20;;;;;;;11.96;100.00;92623.75;5031489;28;20049;-78
2023/05/07 03:39:37;;;;;;;3.22;1.83;;;;;;;11.93;100.00;92620.91;5032134;28;20086;-78
2023/05/07 03:42:03;;;;;;;3.13;1.73;;;;;;;11.89;100.00;92615.47;5032196;28;20037;-78
2023/05/07 03:44:30;;;;;;;5.90;2.03;;;;;;;11.86;100.00;92616.78;5032404;28;20624;-78
2023/05/07 03:46:58;;;;;;;4.35;2.15;;;;;;;11.84;100.00;92608.47;5015845;28;20510;-77
2023/05/07 03:49:24;;;;;;;2.95;1.90;;;;;;;11.84;100.00;92605.03;5031609;28;20030;-78
2023/05/07 03:51:49;;;;;;;3.30;1.90;;;;;;;11.84;100.00;92603.22;5032058;28;20056;-78
2023/05/07 03:54:15;;;;;;;3.00;1.90;;;;;;;11.86;100.00;92597.66;5031864;28;20041;-78
2023/05/07 03:56:43;;;;;;;3.35;2.05;;;;;;;11.88;100.00;92598.94;5029289;28;20029;-78
2023/05/07 03:59:09;;;;;;;3.65;2.10;;;;;;;11.88;100.00;92587.69;5015143;28;20395;-78
2023/05/07 04:01:35;;;;;;;3.13;1.98;;;;;;;11.84;100.00;92597.97;5031669;28;20037;-78
2023/05/07 04:04:01;;;;;;;3.67;2.03;;;;;;;11.81;100.00;92589.88;5019605;28;20025;-78
2023/05/07 04:06:27;;;;;;;3.42;1.85;;;;;;;11.78;100.00;92598.34;5032648;28;20037;-77
2023/05/07 04:08:53;;;;;;;3.58;2.00;;;;;;;11.77;100.00;92602.78;5032452;28;20376;-78
2023/05/07 04:11:20;;;;;;;3.97;2.13;;;;;;;11.75;100.00;92594.44;5032357;28;20581;-77
2023/05/07 04:13:46;;;;;;;3.08;2.00;;;;;;;11.76;100.00;92596.00;5032765;28;20124;-77
2023/05/07 04:16:12;;;;;;;4.53;2.00;;;;;;;11.72;100.00;92600.28;5032763;28;20124;-77
2023/05/07 04:18:38;;;;;;;4.07;1.95;;;;;;;11.72;100.00;92600.28;5031347;28;20041;-77
2023/05/07 04:21:04;;;;;;;3.58;2.00;;;;;;;11.72;100.00;92610.00;5047287;28;20034;-77
2023/05/07 04:23:30;;;;;;;2.65;1.75;;;;;;;11.69;100.00;92606.09;5030921;28;20140;-77
2023/05/07 04:25:59;;;;;;;2.72;1.90;;;;;;;11.70;100.00;92605.03;5031317;28;20114;-78
2023/05/07 04:28:40;;;;;;;3.10;2.00;;;;;;;11.71;100.00;92611.03;5031092;28;20040;-77
2023/05/07 04:31:06;;;;;;;3.38;1.90;;;;;;;11.72;100.00;92618.63;5030650;28;20526;-78
2023/05/07 04:33:34;;;;;;;3.45;2.20;;;;;;;11.73;100.00;92614.97;5013845;28;20037;-77
2023/05/07 04:36:04;;;;;;;2.97;2.00;;;;;;;11.74;100.00;92613.88;5014764;28;20086;-78
2023/05/07 04:38:32;;;;;;;3.55;1.83;;;;;;;11.74;100.00;92613.88;5030866;28;20148;-77
2023/05/07 04:41:05;;;;;;;2.92;1.80;;;;;;;11.74;100.00;92619.13;5030369;28;20076;-77
2023/05/07 04:43:34;;;;;;;3.08;2.00;;;;;;;11.73;100.00;92612.34;5030604;28;20037;-78
2023/05/07 04:46:00;;;;;;;4.85;2.10;;;;;;;11.75;100.00;92610.16;5030676;28;20030;-77
2023/05/07 04:48:27;;;;;;;4.13;2.15;;;;;;;11.73;100.00;92603.66;5030489;28;20041;-78
2023/05/07 04:50:53;;;;;;;4.10;1.98;;;;;;;11.72;100.00;92605.53;5046876;28;20030;-77
2023/05/07 04:53:20;;;;;;;4.00;2.10;;;;;;;11.75;100.00;92604.94;5031751;28;20025;-77
2023/05/07 04:55:47;;;;;;;3.30;1.90;;;;;;;11.80;100.00;92607.47;5014368;28;20563;-77
2023/05/07 04:58:14;;;;;;;3.08;1.90;;;;;;;11.82;100.00;92607.97;5030359;28;20434;-77
2023/05/07 05:00:42;;;;;;;4.30;2.42;;;;;;;11.82;100.00;92615.84;5029486;28;20132;-77
2023/05/07 05:03:08;;;;;;;4.40;2.00;;;;;;;11.82;100.00;92618.47;5028636;28;20479;-77
2023/05/07 05:05:34;;;;;;;3.70;1.95;;;;;;;11.81;100.00;92609.03;5030160;28;20121;-77
2023/05/07 05:08:01;;;;;;;3.58;2.10;;;;;;;11.81;100.00;92609.03;5030352;28;20029;-77
2023/05/07 05:10:26;;;;;;;3.80;2.30;;;;;;;11.86;100.00;92621.25;5030092;28;20487;-77
2023/05/07 05:12:52;;;;;;;3.38;2.10;;;;;;;11.89;100.00;92631.22;5030955;28;20025;-77
2023/05/07 05:15:19;;;;;;;6.50;2.22;;;;;;;11.91;100.00;92623.03;5029867;28;20037;-77
2023/05/07 05:17:44;;;;;;;3.10;2.05;;;;;;;11.99;100.00;92633.66;5029508;28;20055;-78
2023/05/07 05:20:11;;;;;;;4.93;2.08;;;;;;;12.03;100.00;92642.50;5029651;28;20052;-77
2023/05/07 05:22:38;;;;;;;3.47;2.08;;;;;;;12.06;100.00;92641.13;5037686;28;20495;-77
2023/05/07 05:25:04;;;;;;;3.50;2.25;;;;;;;12.17;100.00;92636.47;5026940;28;20041;-78
2023/05/07 05:27:29;;;;;;;6.10;2.25;;;;;;;12.28;100.00;92640.47;5028586;28;20071;-78
2023/05/07 05:29:55;;;;;;;4.18;2.50;;;;;;;12.36;100.00;92644.25;5029900;28;20033;-78
2023/05/07 05:32:21;;;;;;;4.18;2.53;;;;;;;12.42;100.00;92633.34;5029458;28;20030;-78
2023/05/07 05:34:48;;;;;;;3.20;2.20;;;;;;;12.59;100.00;92638.00;5011630;28;20431;-77
2023/05/07 05:37:13;;;;;;;4.47;2.53;;;;;;;12.70;100.00;92634.09;5029283;28;20049;-78
2023/05/07 05:39:39;;;;;;;3.45;2.35;;;;;;;12.82;100.00;92635.44;5029998;28;20557;-77
2023/05/07 05:42:07;;;;;;;4.30;2.28;;;;;;;12.93;100.00;92636.78;5030022;28;20513;-77
2023/05/07 05:44:34;;;;;;;3.67;2.22;;;;;;;13.04;100.00;92638.09;5029257;28;20184;-78
2023/05/07 05:47:00;;;;;;;3.92;2.20;;;;;;;13.17;100.00;92635.72;5013063;28;20148;-78
2023/05/07 05:49:27;;;;;;;3.88;2.17;;;;;;;13.18;100.00;92632.03;5029374;28;20415;-78
2023/05/07 05:51:53;;;;;;;3.75;2.30;;;;;;;13.20;100.00;92630.66;5013848;28;20025;-78
2023/05/07 05:54:19;;;;;;;3.42;2.15;;;;;;;13.24;100.00;92626.34;5029452;28;20088;-78
2023/05/07 05:56:45;;;;;;;5.47;2.28;;;;;;;13.26;100.00;92628.66;5029718;28;20507;-78
2023/05/07 05:59:12;;;;;;;3.35;2.10;;;;;;;13.22;100.00;92622.47;4997245;28;20041;-77
2023/05/07 06:01:38;;;;;;;3.53;1.90;;;;;;;13.13;100.00;92632.91;5012952;28;20038;-77
2023/05/07 06:04:04;;;;;;;2.72;1.90;;;;;;;13.11;100.00;92627.94;5013202;28;20040;-80
2023/05/07 06:06:31;;;;;;;4.90;1.80;;;;;;;13.13;100.00;92631.06;5027975;28;20426;-80
2023/05/07 06:08:57;;;;;;;3.88;2.10;;;;;;;13.28;100.00;92629.19;5015810;28;20087;-80
2023/05/07 06:11:28;;;;;;;;;;;;;;;13.59;100.00;92631.09;5025702;28;20060;-79
2023/05/07 06:13:54;;;;;;;3.03;1.80;;;;;;;14.35;100.00;92638.88;5030031;28;20391;-80
2023/05/07 06:16:20;;;;;;;3.08;1.70;;;;;;;14.70;100.00;92639.75;5031780;28;20411;-80
2023/05/07 06:18:46;;;;;;;2.95;1.80;;;;;;;15.18;100.00;92630.97;5027827;28;20042;-81
2023/05/07 06:21:14;;;;;;;3.28;1.70;;;;;;;15.66;100.00;92633.72;5024358;28;20045;-81
2023/05/07 06:23:40;;;;;;;3.78;1.75;;;;;;;16.10;100.00;92637.81;5030192;28;20104;-81
2023/05/07 06:26:07;;;;;;;3.08;1.70;;;;;;;16.59;100.00;92640.84;5030701;28;20132;-80
2023/05/07 06:28:37;;;;;;;3.47;1.50;;;;;;;17.04;100.00;92640.31;5046577;28;20176;-80
2023/05/07 06:31:16;;;;;;;3.35;1.70;;;;;;;17.03;100.00;92643.28;5013591;28;20038;-81
2023/05/07 06:33:45;;;;;;;2.10;1.50;;;;;;;17.01;100.00;92648.09;5027790;28;20037;-81
2023/05/07 06:36:11;;;;;;;2.78;1.60;;;;;;;17.32;100.00;92641.66;5030588;28;20025;-81
2023/05/07 06:38:37;;;;;;;2.83;1.63;;;;;;;17.71;100.00;92642.25;5031334;28;20072;-81
2023/05/07 06:41:03;;;;;;;2.25;1.58;;;;;;;17.80;100.00;92635.78;5032050;28;20053;-81
2023/05/07 06:43:29;;;;;;;2.25;1.50;;;;;;;17.87;100.00;92643.22;5026693;28;20050;-81
2023/05/07 06:46:12;;;;;;;2.28;1.45;;;;;;;18.03;100.00;92644.13;5025743;28;20072;-81
2023/05/07 06:48:38;;;;;;;3.22;1.40;;;;;;;18.05;100.00;92641.16;5022382;28;20037;-81
2023/05/07 06:51:04;;;;;;;2.47;1.58;;;;;;;17.96;100.00;92643.13;5027856;28;20664;-81
2023/05/07 06:53:30;;;;;;;2.55;1.60;;;;;;;18.23;100.00;92644.38;5028744;28;20090;-79
2023/05/07 06:55:57;;;;;;;2.38;1.60;;;;;;;18.59;100.00;92648.94;5031843;28;20038;-80
2023/05/07 06:58:25;;;;;;;2.63;1.50;;;;;;;18.84;100.00;92644.41;5035017;28;20037;-78
2023/05/07 07:00:51;;;;;;;2.70;1.60;;;;;;;18.92;100.00;92640.88;5025717;28;20033;-80
2023/05/07 07:03:16;;;;;;;3.00;1.88;;;;;;;19.20;100.00;92642.81;5027044;28;20036;-80
2023/05/07 07:05:43;;;;;;;4.18;1.60;;;;;;;19.38;100.00;92642.56;5031737;28;20029;-79
2023/05/07 07:08:09;;;;;;;3.50;1.70;;;;;;;19.58;100.00;92638.94;5038462;28;20051;-80
2023/05/07 07:10:36;;;;;;;2.47;1.50;;;;;;;19.75;100.00;92644.00;5032572;28;20033;-80
2023/05/07 07:13:02;;;;;;;3.42;1.73;;;;;;;19.73;100.00;92646.22;5028365;28;20033;-79
2023/05/07 07:15:28;;;;;;;3.05;1.70;;;;;;;19.85;100.00;92644.63;5020888;28;20026;-77
2023/05/07 07:17:55;;;;;;;4.05;1.73;;;;;;;19.88;99.72;92641.28;5008610;28;20025;-78
2023/05/07 07:20:21;;;;;;;6.10;2.25;;;;;;;19.39;100.00;92642.22;5027585;28;20036;-78
2023/05/07 07:22:47;;;;;;;71.60;4.32;;;;;;;18.15;100.00;92639.94;5037252;28;20053;-77
2023/05/07 07:25:15;;;;;;;5.32;2.80;;;;;;;17.72;100.00;92627.91;5072172;28;20093;-78
2023/05/07 07:27:40;;;;;;;4.18;2.30;;;;;;;17.47;100.00;92633.13;5050865;28;20024;-77
2023/05/07 07:30:07;;;;;;;3.60;2.10;;;;;;;17.55;100.00;92624.34;5069277;28;20045;-77
2023/05/07 07:32:35;;;;;;;4.20;2.42;;;;;;;17.23;100.00;92631.91;5048457;28;20119;-77
2023/05/07 07:35:01;;;;;;;6.53;2.80;;;;;;;16.54;100.00;92629.69;5050169;28;20039;-77
2023/05/07 07:37:27;;;;;;;5.57;2.60;;;;;;;16.12;100.00;92629.56;5048608;28;20090;-77
2023/05/07 07:39:53;;;;;;;4.95;2.67;;;;;;;16.55;100.00;92625.94;5031590;28;20033;-77
2023/05/07 07:42:19;;;;;;;3.92;2.58;;;;;;;16.94;100.00;92629.34;5052260;28;20045;-77
2023/05/07 07:44:45;;;;;;;4.47;2.42;;;;;;;17.12;100.00;92630.75;5036035;28;20478;-77
2023/05/07 07:47:12;;;;;;;3.95;2.40;;;;;;;17.34;100.00;92628.88;5061438;28;20508;-77
2023/05/07 07:49:38;;;;;;;5.13;2.22;;;;;;;17.57;100.00;92627.44;5064703;28;20418;-77
2023/05/07 07:52:06;;;;;;;3.33;1.90;;;;;;;17.96;100.00;92629.88;5047499;28;20115;-78
2023/05/07 07:54:34;;;;;;;3.92;2.47;;;;;;;17.67;100.00;92621.75;5061745;28;20047;-78
2023/05/07 07:57:01;;;;;;;6.28;3.22;;;;;;;17.40;100.00;92628.34;5046369;28;20037;-78
2023/05/07 07:59:27;;;;;;;4.80;2.72;;;;;;;17.43;100.00;92629.59;5052540;28;20478;-78
2023/05/07 08:01:55;;;;;;;4.32;2.50;;;;;;;17.51;100.00;92631.38;5037425;28;20025;-78
2023/05/07 08:04:22;;;;;;;4.30;2.47;;;;;;;17.26;100.00;92625.97;5049393;28;20097;-78
2023/05/07 08:06:48;;;;;;;4.53;3.10;;;;;;;17.35;100.00;92631.19;5046774;28;20024;-78
2023/05/07 08:09:14;;;;;;;4.63;2.85;;;;;;;17.61;100.00;92632.88;5050626;28;20123;-78
2023/05/07 08:11:41;;;;;;;4.55;2.63;;;;;;;17.31;100.00;92640.09;5046342;28;20067;-78
2023/05/07 08:14:06;;;;;;;3.85;2.53;;;;;;;17.24;100.00;92641.41;5048961;28;20041;-78
2023/05/07 08:16:32;;;;;;;3.92;2.10;;;;;;;17.59;100.00;92641.13;5051328;28;20032;-77
2023/05/07 08:19:00;;;;;;;6.25;2.40;;;;;;;17.40;100.00;92648.75;5061870;28;20043;-78
2023/05/07 08:21:26;;;;;;;4.57;2.50;;;;;;;17.43;100.00;92645.47;5034602;28;20036;-77
2023/05/07 08:23:51;;;;;;;3.60;2.25;;;;;;;17.69;100.00;92650.53;5031704;28;20055;-78
2023/05/07 08:26:17;;;;;;;3.17;2.15;;;;;;;17.85;100.00;92632.94;5034184;28;20044;-78
2023/05/07 08:28:43;;;;;;;3.55;2.00;;;;;;;18.15;100.00;92645.25;5066846;28;20036;-78
2023/05/07 08:31:08;;;;;;;3.80;1.50;;;;;;;18.43;98.81;92643.53;5071162;28;20028;-78
2023/05/07 08:33:38;;;;;;;2.28;1.60;;;;;;;18.61;100.00;92646.72;5047168;28;20032;-78
2023/05/07 08:36:04;;;;;;;5.32;2.03;;;;;;;18.64;100.00;92640.78;5064090;28;20032;-78
2023/05/07 08:38:31;;;;;;;7.07;2.20;;;;;;;18.73;100.00;92633.47;5035773;28;20086;-78
2023/05/07 08:40:57;;;;;;;5.63;1.75;;;;;;;18.70;100.00;92643.97;5035791;28;20047;-78
2023/05/07 08:43:26;;;;;;;3.20;1.60;;;;;;;18.73;92.72;92638.00;5069505;28;20044;-78
2023/05/07 08:45:57;;;;;;;3.30;1.80;;;;;;;18.85;100.00;92640.69;5047611;28;20033;-77
2023/05/07 08:48:29;;;;;;;2.83;1.70;;;;;;;18.90;100.00;92645.75;5049133;28;20478;-78
2023/05/07 08:51:17;;;;;;;3.75;2.00;;;;;;;18.80;100.00;92640.91;5053062;28;20044;-79
2023/05/07 08:53:44;;;;;;;4.30;2.00;;;;;;;18.74;100.00;92636.91;5067394;28;20425;-78
2023/05/07 08:56:15;;;;;;;4.43;2.08;;;;;;;18.46;100.00;92640.22;5035372;28;20065;-78
2023/05/07 08:58:42;;;;;;;3.58;1.90;;;;;;;18.40;100.00;92630.94;5070588;28;20036;-79
2023/05/07 09:01:10;;;;;;;3.55;1.90;;;;;;;18.17;100.00;92643.84;5038196;28;20503;-78
2023/05/07 09:03:38;;;;;;;3.30;2.15;;;;;;;18.17;100.00;92630.59;5048570;28;20029;-79
2023/05/07 09:06:04;;;;;;;4.32;1.90;;;;;;;18.33;100.00;92636.03;5032129;28;20043;-78
2023/05/07 09:08:33;;;;;;;3.25;1.88;;;;;;;18.24;100.00;92638.00;5053529;28;20051;-78
2023/05/07 09:11:01;;;;;;;3.35;2.10;;;;;;;18.35;100.00;92631.16;5052361;28;20059;-77
2023/05/07 09:13:28;;;;;;;1.85;1.33;;;;;;;18.46;100.00;92642.88;5053015;28;20363;-78
2023/05/07 09:15:54;;;;;;;6.03;1.90;;;;;;;18.51;100.00;92632.03;5033615;28;20029;-77
2023/05/07 09:18:21;;;;;;;3.85;2.03;;;;;;;18.43;100.00;92637.47;5027499;28;20101;-78
2023/05/07 09:20:48;;;;;;;2.63;1.77;;;;;;;18.06;100.00;92642.72;5049278;28;20036;-78
2023/05/07 09:23:15;;;;;;;4.35;2.08;;;;;;;18.19;100.00;92643.50;5034289;28;20102;-77
2023/05/07 09:25:42;;;;;;;5.05;2.33;;;;;;;18.15;100.00;92639.94;5049966;28;20444;-77
2023/05/07 09:28:14;;;;;;;;;;;;;;;18.33;100.00;92640.53;5033954;28;20037;-76
2023/05/07 09:30:40;;;;;;;6.47;2.25;;;;;;;18.34;100.00;92642.84;5047786;28;20340;-76
2023/05/07 09:33:08;;;;;;;4.00;2.10;;;;;;;18.28;100.00;92650.25;5046899;28;20028;-77
2023/05/07 09:35:38;;;;;;;2.47;1.58;;;;;;;18.20;100.00;92642.41;5049851;28;20175;-78
2023/05/07 09:38:08;;;;;;;3.60;2.20;;;;;;;17.84;100.00;92652.59;5034436;28;20047;-77
2023/05/07 09:40:35;;;;;;;7.20;2.50;;;;;;;17.93;100.00;92644.56;5052015;28;20045;-76
2023/05/07 09:43:11;;;;;;;3.70;2.25;;;;;;;18.03;100.00;92638.81;5067539;28;20116;-77
2023/05/07 09:45:39;;;;;;;4.00;2.50;;;;;;;18.23;100.00;92637.22;5049580;28;20405;-77
2023/05/07 09:48:07;;;;;;;5.20;2.60;;;;;;;18.44;100.00;92645.09;5067148;28;20473;-76
2023/05/07 09:50:36;;;;;;;6.30;2.80;;;;;;;18.71;100.00;92641.00;5047718;28;20032;-76
2023/05/07 09:53:03;;;;;;;3.92;2.17;;;;;;;19.10;100.00;92635.34;5049363;28;20115;-76
2023/05/07 09:55:30;;;;;;;5.85;2.80;;;;;;;19.35;100.00;92639.47;5049976;28;20039;-76
2023/05/07 09:57:57;;;;;;;4.45;2.33;;;;;;;19.67;100.00;92631.59;5051536;28;20037;-77
2023/05/07 10:00:27;;;;;;;5.88;2.95;;;;;;;19.78;100.00;92631.91;5050414;28;20032;-78
2023/05/07 10:03:02;;;;;;;3.88;2.10;;;;;;;19.54;100.00;92632.75;5063463;28;20042;-77
2023/05/07 10:05:37;;;;;;;4.75;2.38;;;;;;;18.99;100.00;92626.28;5046416;28;20482;-77
2023/05/07 10:08:03;;;;;;;4.63;2.30;;;;;;;19.19;100.00;92628.00;5047704;28;20029;-76
2023/05/07 10:10:30;;;;;;;4.40;2.08;;;;;;;19.27;100.00;92627.13;5035945;28;20040;-77
2023/05/07 10:12:58;;;;;;;5.22;2.30;;;;;;;19.14;100.00;92621.06;5047692;28;20024;-76
2023/05/07 10:15:31;;;;;;;3.45;2.13;;;;;;;19.02;100.00;92633.56;5067679;28;20072;-78
2023/05/07 10:17:59;;;;;;;30.83;20.92;;;;;;;19.17;100.00;92630.22;5062322;28;20039;-78
2023/05/07 10:20:26;;;;;;;71.00;45.40;;;;;;;19.44;100.00;92622.63;5044404;28;20083;-77
2023/05/07 10:22:57;;;;;;;6.65;2.38;;;;;;;19.40;100.00;92621.75;5062475;28;20033;-77
2023/05/07 10:25:30;;;;;;;4.60;2.17;;;;;;;19.52;100.00;92619.03;5066064;28;20494;-78
2023/05/07 10:28:06;;;;;;;9.85;4.57;;;;;;;19.76;100.00;92621.63;5039107;28;20039;-78
2023/05/07 10:30:40;;;;;;;;;;;;;;;19.80;100.00;92627.03;5045458;28;20070;-76
2023/05/07 10:33:10;;;;;;;10.23;6.95;;;;;;;20.05;100.00;92614.41;5047423;28;19916;-78
2023/05/07 10:35:41;;;;;;;5.78;3.00;;;;;;;19.87;100.00;92610.53;5050225;28;20028;-78
2023/05/07 10:38:08;;;;;;;5.35;2.58;;;;;;;20.23;100.00;92606.84;5049089;28;20083;-78
2023/05/07 10:40:36;;;;;;;5.68;2.00;;;;;;;20.55;100.00;92610.25;5050846;28;20028;-78
2023/05/07 10:43:07;;;;;;;5.85;2.40;;;;;;;20.21;98.99;92618.94;5053104;28;20486;-78
2023/05/07 10:46:11;;;;;;;4.50;2.03;;;;;;;20.30;100.00;92611.56;5047412;28;20036;-79
2023/05/07 10:49:00;;;;;;;5.38;2.72;;;;;;;20.76;100.00;92611.91;5034111;28;20035;-78
2023/05/07 10:51:30;;;;;;;210.75;134.23;;;;;;;21.08;99.20;92614.50;5043473;28;20071;-78
2023/05/07 10:54:10;;;;;;;15.18;11.23;;;;;;;21.48;99.36;92610.75;5039146;28;20032;-77
2023/05/07 10:56:39;;;;;;;10.25;6.32;;;;;;;21.54;95.11;92612.78;5064173;28;20032;-79
2023/05/07 10:59:23;;;;;;;15.65;8.15;;;;;;;20.86;93.23;92614.03;5054765;28;20041;-77
2023/05/07 11:01:55;;;;;;;5.55;3.10;;;;;;;20.74;96.92;92609.59;5051492;28;20532;-76
2023/05/07 11:04:38;;;;;;;4.88;3.22;;;;;;;21.01;95.18;92612.47;5048928;28;20032;-77
2023/05/07 11:07:25;;;;;;;4.55;3.17;;;;;;;21.04;92.79;92603.00;5052438;28;20131;-76
2023/05/07 11:09:52;;;;;;;8.60;4.07;;;;;;;20.85;92.94;92604.53;5067133;28;20036;-76
2023/05/07 11:12:36;;;;;;;5.25;3.15;;;;;;;20.97;94.16;92599.06;5051682;28;20044;-77
2023/05/07 11:15:06;;;;;;;4.37;2.70;;;;;;;20.91;93.52;92603.13;5048853;28;20039;-76
2023/05/07 11:17:55;;;;;;;6.63;4.32;;;;;;;20.78;92.11;92605.13;5063339;28;20317;-78
2023/05/07 11:20:44;;;;;;;5.55;2.90;;;;;;;20.63;93.71;92599.84;5050263;28;20371;-77
2023/05/07 11:23:32;;;;;;;6.55;3.78;;;;;;;20.43;89.50;92597.09;5061739;28;20483;-77
2023/05/07 11:26:05;;;;;;;5.75;3.58;;;;;;;20.43;91.93;92591.75;5045080;28;20070;-78
2023/05/07 11:28:40;;;;;;;5.18;3.03;;;;;;;20.37;94.48;92591.25;5072634;28;20043;-78
2023/05/07 11:31:06;;;;;;;6.22;3.53;;;;;;;20.51;90.50;92598.00;5062729;28;20040;-78